createdAt,value
2022-11-03T00:06:05.608Z,159.38462
2022-11-03T00:11:07.670Z,175.57895
2022-11-03T00:16:09.580Z,167.18841
2022-11-03T00:21:11.797Z,162.43972
2022-11-03T00:26:18.665Z,170.47059
2022-11-03T00:31:20.779Z,158.63415
2022-11-03T00:36:22.901Z,152.81356
2022-11-03T00:41:25.058Z,160.14035
2022-11-03T00:46:27.949Z,157.88889
2022-11-03T00:51:30.463Z,157.14879
2022-11-03T00:56:32.355Z,151.40741
2022-11-03T01:01:36.196Z,155.68385
2022-11-03T01:06:44.906Z,146.63158
2022-11-03T01:11:46.800Z,170.47059
2022-11-03T01:16:48.737Z,155.68385
2022-11-03T01:21:50.835Z,157.14879
2022-11-03T01:26:52.665Z,167.18841
2022-11-03T01:31:54.727Z,178.22053
2022-11-03T01:36:56.639Z,168
2022-11-03T01:41:58.639Z,175.57895
2022-11-03T01:47:00.385Z,179.1145
2022-11-03T01:52:02.279Z,178.22053
2022-11-03T01:57:03.975Z,168.81752
2022-11-03T02:02:05.685Z,169.64103
2022-11-03T02:07:07.435Z,164.78853
2022-11-03T02:12:09.244Z,172.99628
2022-11-03T02:17:10.945Z,169.64103
2022-11-03T02:22:13.014Z,171.30627
2022-11-03T02:27:14.721Z,168.81752
2022-11-03T02:32:16.346Z,180.92308
2022-11-03T02:37:18.249Z,172.14815
2022-11-03T02:42:19.860Z,170.47059
2022-11-03T02:47:22.210Z,164
2022-11-03T02:52:24.126Z,164
2022-11-03T02:57:25.941Z,171.30627
2022-11-03T03:02:27.776Z,175.57895
2022-11-03T03:07:29.659Z,178.22053
2022-11-03T03:12:31.353Z,167.18841
2022-11-03T03:17:32.952Z,158.63415
2022-11-03T03:22:34.877Z,159.38462
2022-11-03T03:27:36.772Z,162.43972
2022-11-03T03:32:38.444Z,168
2022-11-03T03:37:40.123Z,170.47059
2022-11-03T03:42:41.765Z,159.38462
2022-11-03T03:47:44.231Z,150.02007
2022-11-03T03:52:46.173Z,164
2022-11-03T03:57:47.893Z,165.58273
2022-11-03T04:02:49.496Z,154.9589
2022-11-03T04:07:51.363Z,178.22053
2022-11-03T04:12:53.138Z,164
2022-11-03T04:17:54.991Z,141.4359
2022-11-03T04:22:56.886Z,144.65147
2022-11-03T04:27:58.533Z,159.38462
2022-11-03T04:33:00.477Z,157.14879
2022-11-03T04:38:02.378Z,190.4
2022-11-03T04:43:04.441Z,169.64103
2022-11-03T04:48:06.524Z,187.47826
2022-11-03T04:53:08.790Z,185.56863
2022-11-03T04:58:10.755Z,200.66667
2022-11-03T05:03:12.543Z,192.3871
2022-11-03T05:08:14.736Z,170.47059
2022-11-03T05:13:21.938Z,182.75969
2022-11-03T05:18:23.567Z,186.51969
2022-11-03T05:23:25.371Z,203.91561
2022-11-03T05:28:27.069Z,154.9589
2022-11-03T05:33:28.851Z,211.82609
2022-11-03T05:38:31.083Z,197.49794
2022-11-03T05:43:32.927Z,188.44444
2022-11-03T05:48:35.216Z,191.38956
2022-11-03T05:53:37.227Z,197.49794
2022-11-03T05:58:39.073Z,196.45902
2022-11-03T06:03:41.030Z,180.92308
2022-11-03T06:08:45.897Z,203.91561
2022-11-03T06:13:48.173Z,209.51724
2022-11-03T06:18:50.026Z,191.38956
2022-11-03T06:23:51.838Z,268.21053
2022-11-03T06:28:53.660Z,241.58454
2022-11-03T06:33:55.429Z,263.17098
2022-11-03T06:38:57.366Z,230.51163
2022-11-03T06:43:59.107Z,244.4878
2022-11-03T06:49:01.630Z,259.89744
2022-11-03T06:54:03.480Z,282.46154
2022-11-03T06:59:05.146Z,276.97297
2022-11-03T07:04:07.028Z,276.97297
2022-11-03T07:09:08.825Z,306.35294
2022-11-03T07:14:10.615Z,312.86228
2022-11-03T07:19:12.321Z,269.92593
2022-11-03T07:24:14.357Z,290.06742
2022-11-03T07:29:16.188Z,259.89744
2022-11-03T07:34:18.280Z,263.17098
2022-11-03T07:39:20.330Z,264.83333
2022-11-03T07:44:22.155Z,268.21053
2022-11-03T07:49:23.830Z,298.02299
2022-11-03T07:54:25.828Z,329
2022-11-03T07:59:27.635Z,310.66667
2022-11-03T08:04:29.311Z,317.33333
2022-11-03T08:09:31.157Z,329
2022-11-03T08:14:32.846Z,344
2022-11-03T08:19:34.550Z,357.42282
2022-11-03T08:24:36.372Z,321.91411
2022-11-03T08:29:38.245Z,326.6087
2022-11-03T08:34:40.035Z,357.42282
2022-11-03T08:39:42.008Z,346.61438
2022-11-03T08:44:43.725Z,333.87342
2022-11-03T08:49:45.428Z,357.42282
2022-11-03T08:54:47.236Z,329
2022-11-03T08:59:48.996Z,365.91781
2022-11-03T09:04:50.796Z,333.87342
2022-11-03T09:10:20.323Z,331.42138
2022-11-03T09:15:24.030Z,329
2022-11-03T09:20:25.794Z,288.13408
2022-11-03T09:25:27.852Z,317.33333
2022-11-03T09:30:29.704Z,258.28571
2022-11-03T09:35:31.396Z,344
2022-11-03T09:40:33.365Z,346.61438
2022-11-03T09:45:35.241Z,341.41935
2022-11-03T09:50:36.977Z,298.02299
2022-11-03T09:55:38.867Z,326.6087
2022-11-03T10:00:40.660Z,317.33333
2022-11-03T10:05:42.458Z,336.35669
2022-11-03T10:10:44.214Z,344
2022-11-03T10:15:46.004Z,365.91781
2022-11-03T10:20:47.725Z,390.37681
2022-11-03T10:25:49.695Z,440.77419
2022-11-03T10:31:10.778Z,380.87943
2022-11-03T10:36:13.966Z,407.15789
2022-11-03T10:41:15.941Z,432.88889
2022-11-03T10:51:25.093Z,396.94118
2022-11-03T10:56:26.892Z,351.94702
2022-11-03T11:01:28.770Z,368.82759
2022-11-03T11:06:30.633Z,479.65217
2022-11-03T11:11:32.632Z,484.35088
2022-11-03T11:16:34.329Z,514.37037
2022-11-03T11:21:36.507Z,509.13761
2022-11-03T11:26:38.510Z,498.95495
2022-11-03T11:31:40.302Z,519.70093
2022-11-03T11:41:52.533Z,494
2022-11-03T11:46:54.022Z,453.09091
2022-11-03T11:51:55.491Z,444.81301
2022-11-03T11:56:57.282Z,484.35088
2022-11-03T12:01:58.775Z,457.33333
2022-11-03T12:07:00.441Z,572.57143
2022-11-03T12:12:07.111Z,553.90099
2022-11-03T12:17:10.085Z,547.92157
2022-11-03T12:22:11.674Z,636.13483
2022-11-03T12:27:13.643Z,613.56522
2022-11-03T12:32:32.308Z,514.37037
2022-11-03T12:37:35.809Z,592.42105
2022-11-03T12:42:37.966Z,547.92157
2022-11-03T12:47:39.409Z,475.03448
2022-11-03T12:52:41.094Z,504
2022-11-03T12:57:43.111Z,636.13483
2022-11-03T13:02:44.780Z,553.90099
2022-11-03T13:07:46.529Z,479.65217
2022-11-03T13:12:48.279Z,498.95495
2022-11-03T13:23:01.299Z,542.05825
2022-11-03T13:28:03.364Z,498.95495
2022-11-03T13:33:05.331Z,479.65217
2022-11-03T13:38:07.157Z,461.64706
2022-11-03T13:43:09.948Z,504
2022-11-03T13:59:28.879Z,606.36559
2022-11-03T14:09:39.579Z,514.37037
2022-11-03T14:14:41.320Z,448.91803
2022-11-03T14:19:47.320Z,440.77419
2022-11-03T14:24:51.930Z,346.61438
2022-11-03T14:29:53.925Z,393.63504
2022-11-03T14:34:55.812Z,457.33333
2022-11-03T14:39:57.447Z,436.8
2022-11-03T14:44:59.505Z,393.63504
2022-11-03T14:50:01.007Z,377.80282
2022-11-03T14:55:02.585Z,461.64706
2022-11-03T15:00:04.434Z,429.03937
2022-11-03T15:05:05.978Z,365.91781
2022-11-03T15:10:07.512Z,390.37681
2022-11-03T15:15:09.062Z,432.88889
2022-11-03T15:20:10.516Z,390.37681
2022-11-03T15:30:13.904Z,368.82759
2022-11-03T15:35:15.956Z,560
2022-11-03T15:40:17.471Z,429.03937
2022-11-03T15:45:19.435Z,410.66667
2022-11-03T15:50:20.953Z,393.63504
2022-11-03T15:55:22.524Z,466.0339
2022-11-03T16:00:24.503Z,414.22901
2022-11-03T16:05:26.040Z,357.42282
2022-11-03T16:10:27.628Z,371.77778
2022-11-03T16:15:29.529Z,351.94702
2022-11-03T16:20:31.175Z,304.23392
2022-11-03T16:25:32.774Z,269.92593
2022-11-03T16:30:34.568Z,250.46766
2022-11-03T16:35:36.134Z,225.27854
2022-11-03T16:40:37.937Z,238.73684
2022-11-03T16:45:39.633Z,259.89744
2022-11-03T16:50:44.474Z,220.23318
2022-11-03T16:55:47.192Z,240.15385
2022-11-03T17:00:49.114Z,217.77778
2022-11-03T17:05:50.888Z,211.82609
2022-11-03T17:10:52.385Z,198.54545
2022-11-03T17:15:54.350Z,211.82609
2022-11-03T17:20:56.055Z,229.18519
2022-11-03T17:25:58.279Z,205.01695
2022-11-03T17:30:59.943Z,220.23318
2022-11-03T17:36:01.398Z,231.85047
2022-11-03T17:41:02.779Z,219
2022-11-03T17:46:05.024Z,185.56863
2022-11-03T17:51:06.614Z,220.23318
2022-11-03T17:56:29.158Z,195.42857
2022-11-03T18:01:32.727Z,202.82353
2022-11-03T18:06:34.664Z,181.83784
2022-11-03T18:11:36.421Z,171.30627
2022-11-03T18:16:38.405Z,215.36564
2022-11-03T18:21:40.572Z,205.01695
2022-11-03T18:26:42.404Z,245.96078
2022-11-03T18:31:44.642Z,233.20188
2022-11-03T18:36:46.508Z,245.96078
2022-11-03T18:41:48.317Z,256.69036
2022-11-03T18:46:50.639Z,273.41176
2022-11-03T18:51:55.365Z,233.20188
2022-11-03T18:56:59.603Z,227.87097
2022-11-03T19:02:01.351Z,222.73303
2022-11-03T19:07:02.989Z,241.58454
2022-11-03T19:12:04.497Z,230.51163
2022-11-03T19:17:22.450Z,207.24786
2022-11-03T19:22:25.048Z,215.36564
2022-11-03T19:27:26.709Z,248.9505
2022-11-03T19:32:28.796Z,235.94313
2022-11-03T19:37:35.193Z,215.36564
2022-11-03T19:42:37.824Z,196.45902
2022-11-03T19:47:47.935Z,136.5
2022-11-03T19:52:54.459Z,151.40741
2022-11-03T19:57:56.590Z,175.57895
2022-11-03T20:02:58.554Z,151.40741
2022-11-03T20:08:00.238Z,166.38267
2022-11-03T20:13:01.925Z,154.23891
2022-11-03T20:18:03.743Z,144
2022-11-03T20:23:05.612Z,166.38267
2022-11-03T20:28:07.594Z,160.90141
2022-11-03T20:33:09.992Z,151.40741
2022-11-03T20:38:12.106Z,138.32177
2022-11-03T20:43:13.885Z,125.17647
2022-11-03T20:48:15.757Z,124.64516
2022-11-03T20:53:17.212Z,123.06977
2022-11-03T20:58:18.900Z,127.8806
2022-11-03T21:03:37.744Z,122.55072
2022-11-03T21:08:54.844Z,128.43114
2022-11-03T21:13:56.312Z,124.64516
2022-11-03T21:18:58.050Z,121.52161
2022-11-03T21:23:59.528Z,114.63712
2022-11-03T21:29:01.196Z,118.0113
2022-11-03T21:34:03.451Z,119.49858
2022-11-03T21:39:04.949Z,112.30601
2022-11-03T21:44:06.401Z,111.84741
2022-11-03T21:49:08.544Z,108.26667
2022-11-03T21:54:10.322Z,114.16575
2022-11-03T21:59:12.125Z,102.35476
2022-11-03T22:04:14.316Z,107.82979
2022-11-03T22:09:16.047Z,107.82979
2022-11-03T22:14:17.793Z,107.82979
2022-11-03T22:19:19.234Z,110.03774
2022-11-03T22:24:20.742Z,112.76712
2022-11-03T22:29:22.219Z,110.48649
2022-11-03T22:34:24.092Z,122.03468
2022-11-03T22:39:25.760Z,139.55556
2022-11-03T22:44:27.446Z,142.70968
2022-11-03T22:49:29.340Z,173.85075
2022-11-03T22:54:31.090Z,193.39271
2022-11-03T22:59:32.978Z,188.44444
2022-11-03T23:04:35.054Z,208.37768
2022-11-03T23:09:36.717Z,215.36564
2022-11-03T23:14:38.380Z,238.73684
2022-11-03T23:19:40.279Z,253.54774
2022-11-03T23:24:45.237Z,259.89744
2022-11-03T23:29:47.551Z,250.46766
2022-11-03T23:34:49.559Z,255.11111
2022-11-03T23:39:51.366Z,255.11111
2022-11-03T23:44:53.046Z,599.31915
2022-11-03T23:49:55.342Z,970.66667
2022-11-03T23:54:57.324Z,1201.14286
2022-11-03T23:59:59.258Z,1484
